sensor_id;sensor_type;location;lat;lon;timestamp;pressure;altitude;pressure_sealevel;temperature;humidity
63500;BME280;49654;51.142;14.924;2022-07-06T00:02:22;99535.28;;;18.00;63.66
63500;BME280;49654;51.142;14.924;2022-07-06T00:04:49;99533.56;;;18.12;64.13
63500;BME280;49654;51.142;14.924;2022-07-06T00:07:16;99511.03;;;17.98;64.49
63500;BME280;49654;51.142;14.924;2022-07-06T00:09:43;99530.94;;;18.12;64.84
63500;BME280;49654;51.142;14.924;2022-07-06T00:12:10;99527.59;;;18.23;64.67
63500;BME280;49654;51.142;14.924;2022-07-06T00:14:38;99527.84;;;18.22;64.29
63500;BME280;49654;51.142;14.924;2022-07-06T00:17:05;99521.63;;;18.16;64.13
63500;BME280;49654;51.142;14.924;2022-07-06T00:19:32;99522.03;;;18.13;64.00
63500;BME280;49654;51.142;14.924;2022-07-06T00:21:59;99510.03;;;17.99;64.68
63500;BME280;49654;51.142;14.924;2022-07-06T00:24:25;99527.53;;;17.80;65.35
63500;BME280;49654;51.142;14.924;2022-07-06T00:26:52;99537.91;;;18.00;63.41
63500;BME280;49654;51.142;14.924;2022-07-06T00:29:19;99549.00;;;18.02;62.63
63500;BME280;49654;51.142;14.924;2022-07-06T00:31:48;99560.72;;;17.74;63.58
63500;BME280;49654;51.142;14.924;2022-07-06T00:34:15;99587.03;;;17.61;64.51
63500;BME280;49654;51.142;14.924;2022-07-06T00:36:41;99623.50;;;17.24;64.50
63500;BME280;49654;51.142;14.924;2022-07-06T00:39:08;99622.25;;;17.34;61.69
63500;BME280;49654;51.142;14.924;2022-07-06T00:41:36;99599.09;;;17.75;58.60
63500;BME280;49654;51.142;14.924;2022-07-06T00:44:07;99636.34;;;17.97;58.34
63500;BME280;49654;51.142;14.924;2022-07-06T00:46:34;99631.00;;;17.72;58.92
63500;BME280;49654;51.142;14.924;2022-07-06T00:49:03;99663.66;;;17.90;59.50
63500;BME280;49654;51.142;14.924;2022-07-06T00:51:32;99666.97;;;17.79;59.27
63500;BME280;49654;51.142;14.924;2022-07-06T00:54:02;99668.66;;;17.53;61.04
63500;BME280;49654;51.142;14.924;2022-07-06T00:56:31;99691.19;;;16.89;65.68
63500;BME280;49654;51.142;14.924;2022-07-06T00:58:58;99689.31;;;16.37;68.33
63500;BME280;49654;51.142;14.924;2022-07-06T01:01:26;99680.59;;;16.16;70.43
63500;BME280;49654;51.142;14.924;2022-07-06T01:03:54;99679.53;;;16.04;72.06
63500;BME280;49654;51.142;14.924;2022-07-06T01:06:22;99681.53;;;15.95;72.49
63500;BME280;49654;51.142;14.924;2022-07-06T01:08:49;99688.53;;;15.82;73.67
63500;BME280;49654;51.142;14.924;2022-07-06T01:11:18;99684.91;;;15.83;75.62
63500;BME280;49654;51.142;14.924;2022-07-06T01:13:46;99672.28;;;15.58;77.30
63500;BME280;49654;51.142;14.924;2022-07-06T01:16:13;99691.84;;;15.62;77.65
63500;BME280;49654;51.142;14.924;2022-07-06T01:18:40;99685.13;;;15.46;78.51
63500;BME280;49654;51.142;14.924;2022-07-06T01:21:10;99685.47;;;15.37;78.42
63500;BME280;49654;51.142;14.924;2022-07-06T01:23:41;99705.41;;;15.38;79.26
63500;BME280;49654;51.142;14.924;2022-07-06T01:26:10;99705.59;;;15.36;79.17
63500;BME280;49654;51.142;14.924;2022-07-06T01:28:38;99701.13;;;15.30;79.09
63500;BME280;49654;51.142;14.924;2022-07-06T01:31:13;99696.91;;;15.29;78.75
63500;BME280;49654;51.142;14.924;2022-07-06T01:33:40;99693.94;;;15.39;79.31
63500;BME280;49654;51.142;14.924;2022-07-06T01:36:09;99698.59;;;15.50;79.56
63500;BME280;49654;51.142;14.924;2022-07-06T01:38:43;99680.47;;;15.42;79.16
63500;BME280;49654;51.142;14.924;2022-07-06T01:41:10;99682.34;;;15.55;79.67
63500;BME280;49654;51.142;14.924;2022-07-06T01:43:37;99685.06;;;15.74;79.65
63500;BME280;49654;51.142;14.924;2022-07-06T01:46:04;99686.94;;;15.81;79.10
63500;BME280;49654;51.142;14.924;2022-07-06T01:48:31;99649.13;;;15.55;78.38
63500;BME280;49654;51.142;14.924;2022-07-06T01:50:58;99663.38;;;15.81;79.11
63500;BME280;49654;51.142;14.924;2022-07-06T01:53:27;99663.63;;;15.99;78.40
63500;BME280;49654;51.142;14.924;2022-07-06T01:55:54;99650.53;;;16.06;78.45
63500;BME280;49654;51.142;14.924;2022-07-06T01:58:21;99601.72;;;15.85;78.30
63500;BME280;49654;51.142;14.924;2022-07-06T02:00:48;99645.91;;;16.14;77.99
63500;BME280;49654;51.142;14.924;2022-07-06T02:03:15;99648.16;;;16.24;78.46
63500;BME280;49654;51.142;14.924;2022-07-06T02:05:42;99627.16;;;16.17;78.75
63500;BME280;49654;51.142;14.924;2022-07-06T02:08:09;99650.59;;;16.32;79.07
63500;BME280;49654;51.142;14.924;2022-07-06T02:10:37;99656.41;;;16.21;78.45
63500;BME280;49654;51.142;14.924;2022-07-06T02:13:04;99659.25;;;16.19;79.13
63500;BME280;49654;51.142;14.924;2022-07-06T02:15:31;99659.22;;;16.06;78.80
63500;BME280;49654;51.142;14.924;2022-07-06T02:17:58;99659.38;;;16.05;78.94
63500;BME280;49654;51.142;14.924;2022-07-06T02:20:25;99642.88;;;15.97;79.69
63500;BME280;49654;51.142;14.924;2022-07-06T02:22:52;99613.00;;;15.92;79.02
63500;BME280;49654;51.142;14.924;2022-07-06T02:25:18;99617.06;;;15.94;78.75
63500;BME280;49654;51.142;14.924;2022-07-06T02:27:47;99634.00;;;16.05;79.65
63500;BME280;49654;51.142;14.924;2022-07-06T02:30:14;99617.88;;;16.08;78.84
63500;BME280;49654;51.142;14.924;2022-07-06T02:32:40;99608.84;;;16.11;78.85
63500;BME280;49654;51.142;14.924;2022-07-06T02:35:08;99597.34;;;16.12;79.80
63500;BME280;49654;51.142;14.924;2022-07-06T02:37:34;99602.13;;;15.82;79.90
63500;BME280;49654;51.142;14.924;2022-07-06T02:40:02;99614.00;;;15.84;80.95
63500;BME280;49654;51.142;14.924;2022-07-06T02:42:29;99582.38;;;15.86;81.44
63500;BME280;49654;51.142;14.924;2022-07-06T02:44:57;99615.84;;;15.97;81.15
63500;BME280;49654;51.142;14.924;2022-07-06T02:47:24;99617.09;;;16.14;81.66
63500;BME280;49654;51.142;14.924;2022-07-06T02:49:52;99593.91;;;15.98;81.28
63500;BME280;49654;51.142;14.924;2022-07-06T02:52:19;99560.44;;;15.93;82.05
63500;BME280;49654;51.142;14.924;2022-07-06T02:54:46;99585.06;;;16.25;81.14
63500;BME280;49654;51.142;14.924;2022-07-06T02:57:14;99590.91;;;16.27;81.17
63500;BME280;49654;51.142;14.924;2022-07-06T02:59:41;99574.38;;;16.20;80.79
63500;BME280;49654;51.142;14.924;2022-07-06T03:02:09;99593.31;;;16.09;81.75
63500;BME280;49654;51.142;14.924;2022-07-06T03:04:37;99596.53;;;15.98;82.50
63500;BME280;49654;51.142;14.924;2022-07-06T03:07:04;99600.34;;;15.95;82.58
63500;BME280;49654;51.142;14.924;2022-07-06T03:09:31;99592.88;;;15.86;82.66
63500;BME280;49654;51.142;14.924;2022-07-06T03:11:57;99584.84;;;16.07;82.08
63500;BME280;49654;51.142;14.924;2022-07-06T03:14:25;99586.47;;;16.28;80.33
63500;BME280;49654;51.142;14.924;2022-07-06T03:16:52;99584.44;;;16.30;79.63
63500;BME280;49654;51.142;14.924;2022-07-06T03:19:21;99580.22;;;16.29;79.93
63500;BME280;49654;51.142;14.924;2022-07-06T03:21:48;99484.81;;;15.57;79.25
63500;BME280;49654;51.142;14.924;2022-07-06T03:24:15;99582.84;;;16.16;79.32
63500;BME280;49654;51.142;14.924;2022-07-06T03:26:42;99584.22;;;16.05;79.58
63500;BME280;49654;51.142;14.924;2022-07-06T03:29:09;99559.59;;;15.80;80.22
63500;BME280;49654;51.142;14.924;2022-07-06T03:31:36;99581.59;;;15.92;80.55
63500;BME280;49654;51.142;14.924;2022-07-06T03:34:02;99572.88;;;15.71;81.11
63500;BME280;49654;51.142;14.924;2022-07-06T03:36:31;99588.94;;;15.62;82.46
63500;BME280;49654;51.142;14.924;2022-07-06T03:38:58;99582.28;;;15.59;83.20
63500;BME280;49654;51.142;14.924;2022-07-06T03:41:25;99515.72;;;15.20;81.51
63500;BME280;49654;51.142;14.924;2022-07-06T03:43:52;99581.63;;;15.44;83.15
63500;BME280;49654;51.142;14.924;2022-07-06T03:46:18;99558.88;;;15.44;82.36
63500;BME280;49654;51.142;14.924;2022-07-06T03:48:45;99572.41;;;15.55;81.43
63500;BME280;49654;51.142;14.924;2022-07-06T03:51:12;99570.19;;;15.51;81.15
63500;BME280;49654;51.142;14.924;2022-07-06T03:53:41;99568.16;;;15.47;81.04
63500;BME280;49654;51.142;14.924;2022-07-06T03:56:08;99579.59;;;15.39;81.13
63500;BME280;49654;51.142;14.924;2022-07-06T03:58:52;99571.22;;;15.09;81.62
63500;BME280;49654;51.142;14.924;2022-07-06T04:01:25;99575.63;;;15.09;82.63
63500;BME280;49654;51.142;14.924;2022-07-06T04:03:53;99574.44;;;15.11;83.24
63500;BME280;49654;51.142;14.924;2022-07-06T04:06:20;99573.47;;;15.19;82.96
63500;BME280;49654;51.142;14.924;2022-07-06T04:08:49;99570.47;;;15.22;83.52
63500;BME280;49654;51.142;14.924;2022-07-06T04:11:16;99580.94;;;15.28;83.20
63500;BME280;49654;51.142;14.924;2022-07-06T04:13:43;99582.97;;;15.26;82.50
63500;BME280;49654;51.142;14.924;2022-07-06T04:16:10;99576.50;;;15.22;83.23
63500;BME280;49654;51.142;14.924;2022-07-06T04:18:38;99551.50;;;15.13;82.85
63500;BME280;49654;51.142;14.924;2022-07-06T04:21:05;99573.72;;;15.37;82.98
63500;BME280;49654;51.142;14.924;2022-07-06T04:23:32;99588.69;;;15.50;83.04
63500;BME280;49654;51.142;14.924;2022-07-06T04:26:00;99587.06;;;15.49;82.97
63500;BME280;49654;51.142;14.924;2022-07-06T04:28:27;99572.22;;;15.56;82.71
63500;BME280;49654;51.142;14.924;2022-07-06T04:30:54;99592.34;;;15.62;82.44
63500;BME280;49654;51.142;14.924;2022-07-06T04:33:21;99592.91;;;15.44;82.20
63500;BME280;49654;51.142;14.924;2022-07-06T04:35:48;99591.94;;;15.52;82.72
63500;BME280;49654;51.142;14.924;2022-07-06T04:38:15;99595.13;;;15.54;82.53
63500;BME280;49654;51.142;14.924;2022-07-06T04:40:42;99605.84;;;15.59;82.55
63500;BME280;49654;51.142;14.924;2022-07-06T04:43:13;99614.97;;;15.70;82.34
63500;BME280;49654;51.142;14.924;2022-07-06T04:45:40;99608.13;;;15.75;81.97
63500;BME280;49654;51.142;14.924;2022-07-06T04:48:07;99608.97;;;15.83;82.20
63500;BME280;49654;51.142;14.924;2022-07-06T04:50:34;99612.97;;;15.78;82.69
63500;BME280;49654;51.142;14.924;2022-07-06T04:53:01;99604.28;;;15.71;82.14
63500;BME280;49654;51.142;14.924;2022-07-06T04:55:29;99613.44;;;15.89;82.28
63500;BME280;49654;51.142;14.924;2022-07-06T04:57:56;99572.59;;;15.53;81.56
63500;BME280;49654;51.142;14.924;2022-07-06T05:00:24;99615.03;;;15.90;81.65
63500;BME280;49654;51.142;14.924;2022-07-06T05:02:51;99618.44;;;15.84;81.86
63500;BME280;49654;51.142;14.924;2022-07-06T05:05:18;99620.31;;;16.03;82.34
63500;BME280;49654;51.142;14.924;2022-07-06T05:07:45;99622.13;;;16.02;81.40
63500;BME280;49654;51.142;14.924;2022-07-06T05:10:12;99618.31;;;16.12;81.09
63500;BME280;49654;51.142;14.924;2022-07-06T05:12:39;99623.16;;;16.21;82.09
63500;BME280;49654;51.142;14.924;2022-07-06T05:15:07;99618.53;;;16.37;81.28
63500;BME280;49654;51.142;14.924;2022-07-06T05:17:36;99612.28;;;16.44;80.48
63500;BME280;49654;51.142;14.924;2022-07-06T05:20:04;99619.53;;;16.36;79.67
63500;BME280;49654;51.142;14.924;2022-07-06T05:22:32;99619.56;;;16.49;79.82
63500;BME280;49654;51.142;14.924;2022-07-06T05:24:59;99605.03;;;16.53;79.22
63500;BME280;49654;51.142;14.924;2022-07-06T05:27:26;99606.44;;;16.49;78.33
63500;BME280;49654;51.142;14.924;2022-07-06T05:29:53;99625.59;;;16.56;78.51
63500;BME280;49654;51.142;14.924;2022-07-06T05:32:20;99622.75;;;16.64;78.52
63500;BME280;49654;51.142;14.924;2022-07-06T05:34:49;99630.47;;;16.72;79.00
63500;BME280;49654;51.142;14.924;2022-07-06T05:37:16;99631.06;;;16.81;78.86
63500;BME280;49654;51.142;14.924;2022-07-06T05:39:43;99619.94;;;16.99;79.40
63500;BME280;49654;51.142;14.924;2022-07-06T05:42:12;99636.88;;;17.10;78.30
63500;BME280;49654;51.142;14.924;2022-07-06T05:44:39;99634.41;;;17.21;78.48
63500;BME280;49654;51.142;14.924;2022-07-06T05:47:06;99629.16;;;17.28;77.91
63500;BME280;49654;51.142;14.924;2022-07-06T05:49:52;99639.66;;;17.21;78.00
63500;BME280;49654;51.142;14.924;2022-07-06T05:52:36;99649.69;;;17.44;77.92
63500;BME280;49654;51.142;14.924;2022-07-06T05:55:04;99650.44;;;17.58;77.78
63500;BME280;49654;51.142;14.924;2022-07-06T05:57:31;99653.25;;;17.63;76.27
63500;BME280;49654;51.142;14.924;2022-07-06T05:59:58;99640.97;;;17.50;75.73
63500;BME280;49654;51.142;14.924;2022-07-06T06:02:25;99660.91;;;17.71;76.24
63500;BME280;49654;51.142;14.924;2022-07-06T06:04:54;99652.44;;;17.63;73.88
63500;BME280;49654;51.142;14.924;2022-07-06T06:07:21;99660.38;;;17.56;73.20
63500;BME280;49654;51.142;14.924;2022-07-06T06:09:47;99660.72;;;17.73;74.39
63500;BME280;49654;51.142;14.924;2022-07-06T06:12:14;99659.25;;;17.90;74.52
63500;BME280;49654;51.142;14.924;2022-07-06T06:14:41;99663.88;;;17.95;74.35
63500;BME280;49654;51.142;14.924;2022-07-06T06:17:08;99665.78;;;17.74;74.38
63500;BME280;49654;51.142;14.924;2022-07-06T06:19:35;99675.84;;;17.84;74.75
63500;BME280;49654;51.142;14.924;2022-07-06T06:22:04;99660.28;;;17.83;74.16
63500;BME280;49654;51.142;14.924;2022-07-06T06:24:32;99676.47;;;17.80;72.62
63500;BME280;49654;51.142;14.924;2022-07-06T06:26:59;99682.69;;;17.92;71.90
63500;BME280;49654;51.142;14.924;2022-07-06T06:29:26;99670.69;;;18.02;70.25
63500;BME280;49654;51.142;14.924;2022-07-06T06:31:53;99678.53;;;18.09;71.11
63500;BME280;49654;51.142;14.924;2022-07-06T06:34:20;99665.78;;;18.13;71.32
63500;BME280;49654;51.142;14.924;2022-07-06T06:36:47;99668.66;;;18.36;70.70
63500;BME280;49654;51.142;14.924;2022-07-06T06:39:15;99670.13;;;18.57;70.01
63500;BME280;49654;51.142;14.924;2022-07-06T06:41:42;99637.38;;;18.53;71.25
63500;BME280;49654;51.142;14.924;2022-07-06T06:44:09;99667.00;;;18.73;66.95
63500;BME280;49654;51.142;14.924;2022-07-06T06:46:36;99673.06;;;18.74;66.38
63500;BME280;49654;51.142;14.924;2022-07-06T06:49:03;99673.53;;;18.64;66.89
63500;BME280;49654;51.142;14.924;2022-07-06T06:51:32;99652.81;;;18.74;67.92
63500;BME280;49654;51.142;14.924;2022-07-06T06:53:59;99672.50;;;18.72;66.71
63500;BME280;49654;51.142;14.924;2022-07-06T06:56:27;99672.84;;;18.75;67.10
63500;BME280;49654;51.142;14.924;2022-07-06T06:58:54;99674.03;;;18.80;67.04
63500;BME280;49654;51.142;14.924;2022-07-06T07:01:21;99658.19;;;18.86;67.04
63500;BME280;49654;51.142;14.924;2022-07-06T07:03:50;99674.06;;;19.23;65.21
63500;BME280;49654;51.142;14.924;2022-07-06T07:06:17;99663.44;;;19.11;63.68
63500;BME280;49654;51.142;14.924;2022-07-06T07:08:44;99678.66;;;19.27;66.15
63500;BME280;49654;51.142;14.924;2022-07-06T07:11:11;99673.81;;;19.43;66.04
63500;BME280;49654;51.142;14.924;2022-07-06T07:13:39;99673.53;;;19.33;62.27
63500;BME280;49654;51.142;14.924;2022-07-06T07:16:06;99678.22;;;19.49;64.78
63500;BME280;49654;51.142;14.924;2022-07-06T07:18:33;99683.69;;;19.29;63.02
63500;BME280;49654;51.142;14.924;2022-07-06T07:21:00;99687.28;;;19.35;62.65
63500;BME280;49654;51.142;14.924;2022-07-06T07:23:27;99666.81;;;19.37;63.10
63500;BME280;49654;51.142;14.924;2022-07-06T07:25:54;99688.84;;;19.61;63.37
63500;BME280;49654;51.142;14.924;2022-07-06T07:28:21;99692.22;;;19.68;61.77
63500;BME280;49654;51.142;14.924;2022-07-06T07:30:49;99694.59;;;20.06;61.74
63500;BME280;49654;51.142;14.924;2022-07-06T07:33:17;99695.44;;;20.18;60.52
63500;BME280;49654;51.142;14.924;2022-07-06T07:35:44;99692.00;;;20.18;59.35
63500;BME280;49654;51.142;14.924;2022-07-06T07:38:11;99697.75;;;20.68;57.41
63500;BME280;49654;51.142;14.924;2022-07-06T07:40:37;99675.28;;;20.78;59.90
63500;BME280;49654;51.142;14.924;2022-07-06T07:43:04;99691.59;;;21.10;60.11
63500;BME280;49654;51.142;14.924;2022-07-06T07:45:31;99690.53;;;21.22;58.65
63500;BME280;49654;51.142;14.924;2022-07-06T07:48:00;99693.22;;;20.99;57.53
63500;BME280;49654;51.142;14.924;2022-07-06T07:50:27;99692.50;;;21.39;55.10
63500;BME280;49654;51.142;14.924;2022-07-06T07:52:55;99695.84;;;21.34;54.76
63500;BME280;49654;51.142;14.924;2022-07-06T07:55:22;99704.19;;;20.72;57.20
63500;BME280;49654;51.142;14.924;2022-07-06T07:57:48;99708.69;;;20.42;57.87
63500;BME280;49654;51.142;14.924;2022-07-06T08:00:15;99703.88;;;20.09;58.96
63500;BME280;49654;51.142;14.924;2022-07-06T08:02:43;99714.47;;;19.72;58.65
63500;BME280;49654;51.142;14.924;2022-07-06T08:05:11;99708.66;;;19.45;59.41
63500;BME280;49654;51.142;14.924;2022-07-06T08:07:39;99694.31;;;19.77;56.88
63500;BME280;49654;51.142;14.924;2022-07-06T08:10:06;99649.47;;;20.56;55.04
63500;BME280;49654;51.142;14.924;2022-07-06T08:12:33;99699.84;;;21.37;51.82
63500;BME280;49654;51.142;14.924;2022-07-06T08:15:00;99698.41;;;21.69;55.84
63500;BME280;49654;51.142;14.924;2022-07-06T08:17:27;99694.41;;;21.67;55.02
63500;BME280;49654;51.142;14.924;2022-07-06T08:19:55;99699.28;;;20.88;53.26
63500;BME280;49654;51.142;14.924;2022-07-06T08:22:24;99679.28;;;20.80;55.22
63500;BME280;49654;51.142;14.924;2022-07-06T08:24:51;99709.06;;;21.46;53.63
63500;BME280;49654;51.142;14.924;2022-07-06T08:27:17;99712.00;;;21.61;53.74
63500;BME280;49654;51.142;14.924;2022-07-06T08:29:44;99707.06;;;22.34;50.24
63500;BME280;49654;51.142;14.924;2022-07-06T08:32:11;99715.72;;;22.29;48.03
63500;BME280;49654;51.142;14.924;2022-07-06T08:34:38;99711.88;;;22.37;48.33
63500;BME280;49654;51.142;14.924;2022-07-06T08:37:05;99654.47;;;22.09;45.64
63500;BME280;49654;51.142;14.924;2022-07-06T08:39:33;99709.06;;;22.43;49.02
63500;BME280;49654;51.142;14.924;2022-07-06T08:42:00;99716.19;;;21.86;46.54
63500;BME280;49654;51.142;14.924;2022-07-06T08:44:29;99710.06;;;21.57;45.02
63500;BME280;49654;51.142;14.924;2022-07-06T08:46:57;99723.22;;;22.09;47.54
63500;BME280;49654;51.142;14.924;2022-07-06T08:49:25;99712.94;;;22.69;46.33
63500;BME280;49654;51.142;14.924;2022-07-06T08:51:53;99696.03;;;23.04;44.21
63500;BME280;49654;51.142;14.924;2022-07-06T08:54:21;99722.16;;;22.50;43.41
63500;BME280;49654;51.142;14.924;2022-07-06T08:56:50;99714.97;;;22.62;43.50
63500;BME280;49654;51.142;14.924;2022-07-06T08:59:17;99718.19;;;22.98;42.87
63500;BME280;49654;51.142;14.924;2022-07-06T09:01:44;99699.72;;;22.53;43.65
63500;BME280;49654;51.142;14.924;2022-07-06T09:04:15;99715.16;;;22.44;44.17
63500;BME280;49654;51.142;14.924;2022-07-06T09:06:45;99695.69;;;22.67;42.77
63500;BME280;49654;51.142;14.924;2022-07-06T09:09:18;99712.13;;;23.19;44.27
63500;BME280;49654;51.142;14.924;2022-07-06T09:11:45;99716.63;;;22.85;41.43
63500;BME280;49654;51.142;14.924;2022-07-06T09:14:14;99708.78;;;22.90;44.12
63500;BME280;49654;51.142;14.924;2022-07-06T09:16:41;99719.19;;;22.63;42.19
63500;BME280;49654;51.142;14.924;2022-07-06T09:19:10;99719.81;;;22.37;42.65
63500;BME280;49654;51.142;14.924;2022-07-06T09:21:37;99720.88;;;22.36;42.66
63500;BME280;49654;51.142;14.924;2022-07-06T09:24:09;99712.53;;;22.78;42.83
63500;BME280;49654;51.142;14.924;2022-07-06T09:26:37;99667.38;;;22.67;42.64
63500;BME280;49654;51.142;14.924;2022-07-06T09:29:05;99702.19;;;22.59;43.14
63500;BME280;49654;51.142;14.924;2022-07-06T09:31:33;99710.53;;;22.85;42.21
63500;BME280;49654;51.142;14.924;2022-07-06T09:34:02;99706.03;;;22.68;42.85
63500;BME280;49654;51.142;14.924;2022-07-06T09:36:49;99712.28;;;22.45;43.07
63500;BME280;49654;51.142;14.924;2022-07-06T09:39:18;99716.47;;;22.58;43.10
63500;BME280;49654;51.142;14.924;2022-07-06T09:41:45;99711.72;;;22.43;45.23
63500;BME280;49654;51.142;14.924;2022-07-06T09:44:12;99711.03;;;22.19;46.72
63500;BME280;49654;51.142;14.924;2022-07-06T09:46:42;99708.75;;;22.11;45.62
63500;BME280;49654;51.142;14.924;2022-07-06T09:49:09;99715.25;;;22.32;44.96
63500;BME280;49654;51.142;14.924;2022-07-06T09:51:36;99714.50;;;23.38;42.20
63500;BME280;49654;51.142;14.924;2022-07-06T09:54:06;99698.69;;;23.87;41.41
63500;BME280;49654;51.142;14.924;2022-07-06T09:56:38;99710.16;;;24.19;40.92
63500;BME280;49654;51.142;14.924;2022-07-06T09:59:08;99665.28;;;23.03;40.53
63500;BME280;49654;51.142;14.924;2022-07-06T10:01:35;99717.84;;;23.11;42.17
63500;BME280;49654;51.142;14.924;2022-07-06T10:04:05;99704.78;;;23.43;41.21
63500;BME280;49654;51.142;14.924;2022-07-06T10:06:32;99718.56;;;24.65;38.59
63500;BME280;49654;51.142;14.924;2022-07-06T10:09:00;99713.47;;;24.96;39.60
63500;BME280;49654;51.142;14.924;2022-07-06T10:11:28;99717.75;;;26.02;33.79
63500;BME280;49654;51.142;14.924;2022-07-06T10:13:56;99713.03;;;27.16;33.08
63500;BME280;49654;51.142;14.924;2022-07-06T10:16:24;99699.41;;;29.91;30.98
63500;BME280;49654;51.142;14.924;2022-07-06T10:18:52;99702.06;;;32.58;26.24
63500;BME280;49654;51.142;14.924;2022-07-06T10:21:22;99695.09;;;33.85;22.65
63500;BME280;49654;51.142;14.924;2022-07-06T10:23:49;99698.16;;;32.20;24.76
63500;BME280;49654;51.142;14.924;2022-07-06T10:26:17;99658.59;;;30.51;26.16
63500;BME280;49654;51.142;14.924;2022-07-06T10:28:45;99699.78;;;31.84;25.76
63500;BME280;49654;51.142;14.924;2022-07-06T10:31:13;99706.03;;;32.16;25.78
63500;BME280;49654;51.142;14.924;2022-07-06T10:33:42;99704.41;;;31.56;25.52
63500;BME280;49654;51.142;14.924;2022-07-06T10:36:10;99707.13;;;30.50;27.43
63500;BME280;49654;51.142;14.924;2022-07-06T10:38:38;99721.41;;;27.64;30.13
63500;BME280;49654;51.142;14.924;2022-07-06T10:41:06;99701.69;;;25.71;33.85
63500;BME280;49654;51.142;14.924;2022-07-06T10:43:34;99718.53;;;25.87;32.27
63500;BME280;49654;51.142;14.924;2022-07-06T10:46:09;99711.47;;;26.44;32.47
63500;BME280;49654;51.142;14.924;2022-07-06T10:48:37;99683.34;;;25.12;34.77
63500;BME280;49654;51.142;14.924;2022-07-06T10:51:05;99708.97;;;25.34;35.00
63500;BME280;49654;51.142;14.924;2022-07-06T10:53:34;99720.13;;;25.98;33.96
63500;BME280;49654;51.142;14.924;2022-07-06T10:56:04;99643.00;;;26.34;30.76
63500;BME280;49654;51.142;14.924;2022-07-06T10:58:36;99728.25;;;26.80;34.19
63500;BME280;49654;51.142;14.924;2022-07-06T11:01:03;99721.53;;;26.32;31.63
63500;BME280;49654;51.142;14.924;2022-07-06T11:03:37;99718.22;;;27.57;30.06
63500;BME280;49654;51.142;14.924;2022-07-06T11:06:09;99720.19;;;28.45;29.44
63500;BME280;49654;51.142;14.924;2022-07-06T11:08:42;99714.78;;;28.11;30.39
63500;BME280;49654;51.142;14.924;2022-07-06T11:11:13;99662.13;;;25.90;31.93
63500;BME280;49654;51.142;14.924;2022-07-06T11:13:46;99691.19;;;26.12;32.71
63500;BME280;49654;51.142;14.924;2022-07-06T11:16:14;99705.06;;;28.26;31.63
63500;BME280;49654;51.142;14.924;2022-07-06T11:18:42;99702.38;;;30.60;25.74
63500;BME280;49654;51.142;14.924;2022-07-06T11:21:20;99703.47;;;31.20;25.66
63500;BME280;49654;51.142;14.924;2022-07-06T11:23:50;99686.53;;;32.33;22.46
63500;BME280;49654;51.142;14.924;2022-07-06T11:26:18;99659.41;;;34.49;20.06
63500;BME280;49654;51.142;14.924;2022-07-06T11:28:47;99691.03;;;35.46;20.08
63500;BME280;49654;51.142;14.924;2022-07-06T11:31:17;99705.66;;;33.56;21.40
63500;BME280;49654;51.142;14.924;2022-07-06T11:33:47;99705.53;;;29.92;25.41
63500;BME280;49654;51.142;14.924;2022-07-06T11:36:16;99700.63;;;27.56;28.88
63500;BME280;49654;51.142;14.924;2022-07-06T11:38:44;99708.22;;;26.21;31.49
63500;BME280;49654;51.142;14.924;2022-07-06T11:41:12;99713.00;;;26.04;32.03
63500;BME280;49654;51.142;14.924;2022-07-06T11:43:42;99669.72;;;24.66;34.05
63500;BME280;49654;51.142;14.924;2022-07-06T11:46:22;99714.03;;;24.98;32.88
63500;BME280;49654;51.142;14.924;2022-07-06T11:48:51;99711.44;;;27.15;31.72
63500;BME280;49654;51.142;14.924;2022-07-06T11:51:18;99711.13;;;27.27;30.03
63500;BME280;49654;51.142;14.924;2022-07-06T11:53:46;99670.53;;;25.57;31.97
63500;BME280;49654;51.142;14.924;2022-07-06T11:56:14;99716.16;;;25.38;33.23
63500;BME280;49654;51.142;14.924;2022-07-06T11:58:44;99710.66;;;25.55;33.00
63500;BME280;49654;51.142;14.924;2022-07-06T12:01:13;99651.81;;;26.50;32.05
63500;BME280;49654;51.142;14.924;2022-07-06T12:03:41;99699.78;;;30.88;24.17
63500;BME280;49654;51.142;14.924;2022-07-06T12:06:13;99672.38;;;34.38;22.21
63500;BME280;49654;51.142;14.924;2022-07-06T12:08:42;99693.19;;;32.89;22.19
63500;BME280;49654;51.142;14.924;2022-07-06T12:11:09;99703.56;;;28.54;27.22
63500;BME280;49654;51.142;14.924;2022-07-06T12:13:37;99698.09;;;26.29;30.65
63500;BME280;49654;51.142;14.924;2022-07-06T12:16:11;99703.16;;;27.22;31.50
63500;BME280;49654;51.142;14.924;2022-07-06T12:18:39;99691.97;;;31.97;24.68
63500;BME280;49654;51.142;14.924;2022-07-06T12:21:10;99670.78;;;33.42;21.21
63500;BME280;49654;51.142;14.924;2022-07-06T12:23:43;99663.13;;;34.74;19.59
63500;BME280;49654;51.142;14.924;2022-07-06T12:26:11;99672.94;;;32.29;21.58
63500;BME280;49654;51.142;14.924;2022-07-06T12:28:38;99669.50;;;29.65;25.54
63500;BME280;49654;51.142;14.924;2022-07-06T12:31:05;99690.56;;;28.42;26.00
63500;BME280;49654;51.142;14.924;2022-07-06T12:33:34;99667.31;;;29.67;27.24
63500;BME280;49654;51.142;14.924;2022-07-06T12:36:11;99662.19;;;32.52;22.00
63500;BME280;49654;51.142;14.924;2022-07-06T12:38:46;99672.66;;;33.24;21.17
63500;BME280;49654;51.142;14.924;2022-07-06T12:41:30;99645.44;;;34.30;18.72
63500;BME280;49654;51.142;14.924;2022-07-06T12:44:04;99659.66;;;31.38;21.02
63500;BME280;49654;51.142;14.924;2022-07-06T12:46:33;99673.41;;;30.11;23.18
63500;BME280;49654;51.142;14.924;2022-07-06T12:49:04;99673.03;;;28.26;24.82
63500;BME280;49654;51.142;14.924;2022-07-06T12:51:50;99681.91;;;26.45;27.88
63500;BME280;49654;51.142;14.924;2022-07-06T12:54:17;99677.03;;;27.09;28.69
63500;BME280;49654;51.142;14.924;2022-07-06T12:57:04;99660.31;;;29.72;25.93